Time;durP1;ratioP1;P1;durP2;ratioP2;P2;SDS_P1;SDS_P2;PMS_P1;PMS_P2;Temp;Humidity;BMP_temperature;BMP_pressure;BME280_temperature;BME280_humidity;BME280_pressure;Samples;Min_cycle;Max_cycle;Signal;HPM_P1;HPM_P2
2023/07/25 00:02:18;;;;;;;0.50;0.50;;;13.60;99.90;;;;;;5096257;28;20389;-76
2023/07/25 00:04:44;;;;;;;0.40;0.40;;;13.50;99.90;;;;;;5095975;28;20040;-77
2023/07/25 00:07:10;;;;;;;0.30;0.30;;;13.50;99.90;;;;;;5095564;28;20044;-75
2023/07/25 00:09:35;;;;;;;0.75;0.75;;;13.50;99.90;;;;;;5095746;28;20047;-77
2023/07/25 00:12:01;;;;;;;0.30;0.30;;;13.40;99.90;;;;;;5095617;28;20044;-78
2023/07/25 00:14:26;;;;;;;0.40;0.40;;;13.40;99.90;;;;;;5095672;28;20059;-79
2023/07/25 00:16:52;;;;;;;0.50;0.50;;;13.40;99.90;;;;;;5094545;28;20036;-75
2023/07/25 00:19:17;;;;;;;0.43;0.43;;;13.20;99.90;;;;;;5096037;28;20051;-79
2023/07/25 00:21:43;;;;;;;0.40;0.40;;;13.30;99.90;;;;;;5095495;28;20537;-78
2023/07/25 00:24:09;;;;;;;0.50;0.50;;;13.30;99.90;;;;;;5095975;28;20043;-77
2023/07/25 00:26:34;;;;;;;0.40;0.40;;;13.30;99.90;;;;;;5095761;28;20039;-75
2023/07/25 00:29:00;;;;;;;0.40;0.40;;;13.20;99.90;;;;;;5095607;28;20483;-77
2023/07/25 00:31:25;;;;;;;0.30;0.30;;;13.20;99.90;;;;;;5094983;28;20388;-78
2023/07/25 00:33:52;;;;;;;0.32;0.32;;;13.20;99.90;;;;;;5095275;28;20044;-77
2023/07/25 00:36:17;;;;;;;0.40;0.40;;;13.20;99.90;;;;;;5095155;28;20109;-76
2023/07/25 00:38:43;;;;;;;0.50;0.50;;;13.20;99.90;;;;;;5095211;28;20036;-78
2023/07/25 00:41:08;;;;;;;0.45;0.45;;;13.10;99.90;;;;;;5095103;28;20048;-76
2023/07/25 00:43:34;;;;;;;0.40;0.40;;;13.10;99.90;;;;;;5095282;28;20087;-77
2023/07/25 00:46:00;;;;;;;0.40;0.40;;;13.10;99.90;;;;;;5095141;28;20379;-78
2023/07/25 00:48:25;;;;;;;0.40;0.40;;;13.00;99.90;;;;;;5094751;28;20036;-75
2023/07/25 00:50:51;;;;;;;0.40;0.40;;;13.00;99.90;;;;;;5094584;28;20028;-76
2023/07/25 00:53:17;;;;;;;0.40;0.40;;;13.00;99.90;;;;;;5094987;28;20074;-75
2023/07/25 00:55:43;;;;;;;0.40;0.40;;;13.00;99.90;;;;;;5093917;28;20047;-77
2023/07/25 00:58:08;;;;;;;0.47;0.47;;;13.00;99.90;;;;;;5094679;28;20062;-76
2023/07/25 01:00:37;;;;;;;0.30;0.30;;;12.90;99.90;;;;;;5094609;28;20040;-76
2023/07/25 01:03:02;;;;;;;0.35;0.35;;;13.10;99.90;;;;;;5094762;28;20079;-77
2023/07/25 01:05:31;;;;;;;0.40;0.40;;;12.90;99.90;;;;;;5094648;28;20086;-77
2023/07/25 01:07:56;;;;;;;0.40;0.40;;;12.90;99.90;;;;;;5094665;28;20047;-77
2023/07/25 01:10:22;;;;;;;0.57;0.57;;;12.80;99.90;;;;;;5094474;28;20403;-74
2023/07/25 01:12:48;;;;;;;0.30;0.30;;;12.80;99.90;;;;;;5093367;28;20040;-76
2023/07/25 01:15:13;;;;;;;0.50;0.50;;;12.80;99.90;;;;;;5094524;28;20090;-76
2023/07/25 01:17:39;;;;;;;0.30;0.30;;;12.80;99.90;;;;;;5093405;28;20380;-77
2023/07/25 01:20:08;;;;;;;0.40;0.40;;;12.70;99.90;;;;;;5094238;28;20081;-78
2023/07/25 01:22:36;;;;;;;0.40;0.40;;;12.70;99.90;;;;;;5094604;28;20122;-78
2023/07/25 01:25:02;;;;;;;0.47;0.47;;;12.70;99.90;;;;;;5094577;28;20106;-78
2023/07/25 01:27:28;;;;;;;0.50;0.50;;;12.70;99.90;;;;;;5093209;28;20088;-76
2023/07/25 01:29:53;;;;;;;0.40;0.40;;;12.70;99.90;;;;;;5094648;28;20068;-76
2023/07/25 01:32:19;;;;;;;0.40;0.40;;;12.60;99.90;;;;;;5094320;28;20044;-75
2023/07/25 01:34:44;;;;;;;0.40;0.40;;;12.60;99.90;;;;;;5094238;28;20054;-79
2023/07/25 01:37:10;;;;;;;0.40;0.40;;;12.60;99.90;;;;;;5094236;28;20082;-78
2023/07/25 01:39:37;;;;;;;0.40;0.40;;;12.60;99.90;;;;;;5093931;28;20517;-75
2023/07/25 01:42:02;;;;;;;0.52;0.52;;;12.60;99.90;;;;;;5094099;28;20042;-76
2023/07/25 01:44:28;;;;;;;0.60;0.60;;;12.50;99.90;;;;;;5094125;28;20032;-75
2023/07/25 01:46:56;;;;;;;0.40;0.40;;;12.50;99.90;;;;;;5093962;28;20111;-76
2023/07/25 01:49:22;;;;;;;0.40;0.40;;;12.40;99.90;;;;;;5094120;28;20490;-79
2023/07/25 01:51:48;;;;;;;0.40;0.40;;;12.40;99.90;;;;;;5093860;28;20036;-77
2023/07/25 01:54:16;;;;;;;0.40;0.40;;;12.40;99.90;;;;;;5094222;28;20040;-76
2023/07/25 01:56:42;;;;;;;0.40;0.40;;;12.40;99.90;;;;;;5093947;28;20426;-79
2023/07/25 01:59:07;;;;;;;0.70;0.70;;;12.40;99.90;;;;;;5093838;28;20040;-78
2023/07/25 02:01:33;;;;;;;0.40;0.40;;;12.40;99.90;;;;;;5093904;28;20040;-77
2023/07/25 02:03:59;;;;;;;0.47;0.47;;;12.30;99.90;;;;;;5093744;28;20040;-75
2023/07/25 02:06:24;;;;;;;0.40;0.40;;;12.30;99.90;;;;;;5094208;28;20118;-79
2023/07/25 02:08:50;;;;;;;0.47;0.47;;;12.30;99.90;;;;;;5093636;28;20516;-76
2023/07/25 02:11:16;;;;;;;0.50;0.50;;;12.30;99.90;;;;;;5093644;28;20046;-76
2023/07/25 02:13:41;;;;;;;0.50;0.50;;;12.20;99.90;;;;;;5093766;28;20082;-75
2023/07/25 02:16:07;;;;;;;0.50;0.50;;;12.20;99.90;;;;;;5093581;28;20079;-78
2023/07/25 02:18:32;;;;;;;0.50;0.50;;;12.10;99.90;;;;;;5093795;28;20337;-75
2023/07/25 02:20:59;;;;;;;0.40;0.40;;;12.20;99.90;;;;;;5093803;28;20047;-75
2023/07/25 02:23:24;;;;;;;0.52;0.50;;;12.10;99.90;;;;;;5093618;28;20032;-78
2023/07/25 02:25:50;;;;;;;0.40;0.40;;;12.10;99.90;;;;;;5093758;28;20035;-76
2023/07/25 02:28:16;;;;;;;0.43;0.43;;;12.10;99.90;;;;;;5093881;28;20468;-75
2023/07/25 02:30:41;;;;;;;0.60;0.60;;;12.00;99.90;;;;;;5093636;28;20480;-76
2023/07/25 02:33:07;;;;;;;0.40;0.40;;;12.00;99.90;;;;;;5093331;28;20479;-76
2023/07/25 02:35:33;;;;;;;0.50;0.50;;;12.00;99.90;;;;;;5093493;28;20468;-77
2023/07/25 02:37:58;;;;;;;0.40;0.40;;;12.10;99.90;;;;;;5093950;28;20086;-75
2023/07/25 02:40:24;;;;;;;0.40;0.40;;;12.00;99.90;;;;;;5095257;28;20036;-78
2023/07/25 02:42:49;;;;;;;0.50;0.50;;;12.00;99.90;;;;;;5097494;28;20039;-77
2023/07/25 02:45:15;;;;;;;0.40;0.40;;;12.00;99.90;;;;;;5097546;28;20492;-76
2023/07/25 02:47:41;;;;;;;0.40;0.40;;;12.00;99.90;;;;;;5097192;28;20121;-75
2023/07/25 02:50:06;;;;;;;0.40;0.40;;;12.00;99.90;;;;;;5097040;28;20048;-77
2023/07/25 02:52:32;;;;;;;0.40;0.40;;;12.00;99.90;;;;;;5097435;28;20036;-75
2023/07/25 02:54:57;;;;;;;0.60;0.60;;;12.00;99.90;;;;;;5097516;28;20125;-75
2023/07/25 02:57:23;;;;;;;0.40;0.40;;;11.90;99.90;;;;;;5097360;28;20028;-76
2023/07/25 02:59:49;;;;;;;0.40;0.40;;;12.00;99.90;;;;;;5097495;28;20040;-76
2023/07/25 03:02:14;;;;;;;0.45;0.45;;;12.00;99.90;;;;;;5097364;28;20040;-75
2023/07/25 03:04:40;;;;;;;0.40;0.40;;;11.90;99.90;;;;;;5097230;28;20127;-75
2023/07/25 03:07:06;;;;;;;0.40;0.40;;;11.90;99.90;;;;;;5097093;28;20032;-76
2023/07/25 03:09:31;;;;;;;0.50;0.50;;;11.90;99.90;;;;;;5096920;28;20036;-76
2023/07/25 03:11:57;;;;;;;0.40;0.40;;;11.90;99.90;;;;;;5096842;28;20044;-76
2023/07/25 03:14:22;;;;;;;0.38;0.38;;;11.90;99.90;;;;;;5096941;28;20036;-75
2023/07/25 03:16:48;;;;;;;0.60;0.60;;;11.80;99.90;;;;;;5096627;28;20044;-76
2023/07/25 03:19:14;;;;;;;0.45;0.45;;;11.80;99.90;;;;;;5096762;28;20055;-76
2023/07/25 03:21:39;;;;;;;0.40;0.40;;;11.80;99.90;;;;;;5096640;28;20032;-76
2023/07/25 03:24:05;;;;;;;0.50;0.50;;;11.90;99.90;;;;;;5096660;28;20032;-77
2023/07/25 03:26:31;;;;;;;0.40;0.40;;;11.80;99.90;;;;;;5096309;28;20036;-75
2023/07/25 03:28:57;;;;;;;0.45;0.45;;;11.80;99.90;;;;;;5095295;28;20093;-77
2023/07/25 03:31:22;;;;;;;0.50;0.50;;;11.80;99.90;;;;;;5095450;28;20047;-78
2023/07/25 03:33:48;;;;;;;0.45;0.45;;;11.90;99.90;;;;;;5096504;28;20044;-75
2023/07/25 03:36:13;;;;;;;0.40;0.40;;;11.80;99.90;;;;;;5096411;28;20537;-77
2023/07/25 03:38:39;;;;;;;0.40;0.40;;;11.80;99.90;;;;;;5096407;28;20079;-76
2023/07/25 03:41:06;;;;;;;0.40;0.40;;;11.80;99.90;;;;;;5096275;28;20040;-77
2023/07/25 03:43:32;;;;;;;0.50;0.50;;;11.80;99.90;;;;;;5096609;28;20048;-75
2023/07/25 03:45:57;;;;;;;0.40;0.40;;;12.00;99.90;;;;;;5096249;28;20457;-78
2023/07/25 03:48:23;;;;;;;0.40;0.40;;;11.80;99.90;;;;;;5096103;28;20040;-76
2023/07/25 03:50:49;;;;;;;0.40;0.40;;;11.80;99.90;;;;;;5096432;28;20486;-78
2023/07/25 03:53:14;;;;;;;0.40;0.40;;;11.80;99.90;;;;;;5096324;28;20387;-78
2023/07/25 03:55:40;;;;;;;0.43;0.43;;;11.80;99.90;;;;;;5096242;28;20045;-76
2023/07/25 03:58:05;;;;;;;0.50;0.50;;;11.80;99.90;;;;;;5096414;28;20123;-77
2023/07/25 04:00:31;;;;;;;0.40;0.40;;;11.80;99.90;;;;;;5096035;28;20040;-78
2023/07/25 04:02:57;;;;;;;0.50;0.50;;;11.90;99.90;;;;;;5095100;28;20135;-76
2023/07/25 04:05:22;;;;;;;0.40;0.40;;;11.80;99.90;;;;;;5095621;28;20051;-76
2023/07/25 04:07:48;;;;;;;0.47;0.47;;;12.00;99.90;;;;;;5096083;28;20043;-77
2023/07/25 04:10:13;;;;;;;0.40;0.40;;;11.80;99.90;;;;;;5095746;28;20039;-79
2023/07/25 04:12:39;;;;;;;0.40;0.40;;;11.80;99.90;;;;;;5095663;28;20054;-74
2023/07/25 04:15:05;;;;;;;0.40;0.40;;;11.90;99.90;;;;;;5095897;28;20079;-75
2023/07/25 04:17:31;;;;;;;0.50;0.50;;;11.90;99.90;;;;;;5095445;28;20122;-75
2023/07/25 04:19:56;;;;;;;0.40;0.40;;;11.90;99.90;;;;;;5095262;28;20123;-75
2023/07/25 04:22:22;;;;;;;0.40;0.40;;;11.90;99.90;;;;;;5095539;28;20046;-75
2023/07/25 04:24:47;;;;;;;0.50;0.50;;;11.90;99.90;;;;;;5095560;28;20043;-75
2023/07/25 04:27:13;;;;;;;0.50;0.50;;;12.00;99.90;;;;;;5095902;28;20040;-75
2023/07/25 04:29:39;;;;;;;0.40;0.40;;;12.00;99.90;;;;;;5095419;28;20472;-75
2023/07/25 04:32:05;;;;;;;0.60;0.60;;;12.10;99.90;;;;;;5095365;28;20452;-75
2023/07/25 04:34:30;;;;;;;0.40;0.40;;;12.10;99.90;;;;;;5095020;28;20036;-75
2023/07/25 04:36:56;;;;;;;0.43;0.43;;;12.20;99.90;;;;;;5095264;28;20039;-75
2023/07/25 04:39:21;;;;;;;0.40;0.40;;;12.30;99.90;;;;;;5095226;28;20131;-75
2023/07/25 04:41:47;;;;;;;0.40;0.40;;;12.20;99.90;;;;;;5095213;28;20525;-75
2023/07/25 04:44:13;;;;;;;0.55;0.55;;;12.30;99.90;;;;;;5093925;28;20048;-75
2023/07/25 04:46:39;;;;;;;0.40;0.40;;;12.40;99.90;;;;;;5095107;28;20040;-75
2023/07/25 04:49:06;;;;;;;0.50;0.50;;;12.50;99.90;;;;;;5094919;28;20177;-75
2023/07/25 04:51:32;;;;;;;0.40;0.40;;;12.50;99.90;;;;;;5094806;28;20118;-76
2023/07/25 04:53:58;;;;;;;0.50;0.50;;;12.50;99.90;;;;;;5095228;28;20128;-75
2023/07/25 04:56:23;;;;;;;0.40;0.40;;;12.60;99.90;;;;;;5095059;28;20044;-75
2023/07/25 04:58:49;;;;;;;0.40;0.40;;;12.60;99.90;;;;;;5094871;28;20452;-75
2023/07/25 05:01:15;;;;;;;0.40;0.40;;;12.60;99.90;;;;;;5094943;28;20071;-74
2023/07/25 05:03:40;;;;;;;1.23;0.50;;;12.70;99.90;;;;;;5094177;28;20130;-75
2023/07/25 05:06:06;;;;;;;0.50;0.50;;;12.70;99.90;;;;;;5094763;28;20119;-75
2023/07/25 05:08:31;;;;;;;0.60;0.60;;;12.80;99.90;;;;;;5095005;28;20039;-72
2023/07/25 05:10:57;;;;;;;0.40;0.40;;;12.80;99.90;;;;;;5094529;28;20460;-75
2023/07/25 05:13:23;;;;;;;0.50;0.50;;;12.80;99.90;;;;;;5094556;28;20048;-76
2023/07/25 05:15:49;;;;;;;0.40;0.40;;;12.80;99.90;;;;;;5094480;28;20050;-77
2023/07/25 05:18:14;;;;;;;0.40;0.40;;;12.90;99.90;;;;;;5094472;28;20048;-75
2023/07/25 05:20:40;;;;;;;0.60;0.60;;;12.90;99.90;;;;;;5094123;28;20459;-74
2023/07/25 05:23:06;;;;;;;0.60;0.60;;;13.00;99.90;;;;;;5094479;28;20089;-74
2023/07/25 05:25:31;;;;;;;0.50;0.50;;;13.00;99.90;;;;;;5094496;28;20039;-75
2023/07/25 05:27:58;;;;;;;0.52;0.52;;;13.10;99.90;;;;;;5094489;28;20131;-76
2023/07/25 05:30:23;;;;;;;0.50;0.50;;;13.10;99.90;;;;;;5094481;28;20051;-73
2023/07/25 05:32:49;;;;;;;0.45;0.45;;;13.20;99.90;;;;;;5094385;28;20467;-76
2023/07/25 05:35:15;;;;;;;0.50;0.50;;;13.40;99.90;;;;;;5094016;28;20039;-74
2023/07/25 05:37:41;;;;;;;0.50;0.50;;;13.40;99.90;;;;;;5094217;28;20051;-74
2023/07/25 05:40:07;;;;;;;0.40;0.40;;;13.50;99.90;;;;;;5094291;28;20036;-75
2023/07/25 05:42:33;;;;;;;0.50;0.50;;;13.60;99.90;;;;;;5094117;28;20120;-74
2023/07/25 05:45:01;;;;;;;0.40;0.40;;;13.70;99.90;;;;;;5094006;28;20071;-74
2023/07/25 05:47:28;;;;;;;0.40;0.40;;;13.80;99.90;;;;;;5094011;28;20036;-77
2023/07/25 05:49:54;;;;;;;0.43;0.43;;;13.90;99.90;;;;;;5093909;28;20040;-76
2023/07/25 05:52:19;;;;;;;0.40;0.40;;;14.00;99.90;;;;;;5094037;28;20040;-73
2023/07/25 05:54:45;;;;;;;0.43;0.43;;;14.20;99.90;;;;;;5094099;28;20376;-75
2023/07/25 05:57:11;;;;;;;0.43;0.43;;;14.30;99.90;;;;;;5093857;28;20040;-76
2023/07/25 05:59:36;;;;;;;0.50;0.50;;;14.40;99.90;;;;;;5093668;28;20047;-73
2023/07/25 06:02:03;;;;;;;0.40;0.40;;;14.40;99.90;;;;;;5093853;28;20079;-76
2023/07/25 06:04:29;;;;;;;0.40;0.40;;;14.60;99.90;;;;;;5093681;28;20043;-76
2023/07/25 06:06:55;;;;;;;0.40;0.40;;;14.70;99.90;;;;;;5093747;28;20046;-76
2023/07/25 06:09:21;;;;;;;0.30;0.30;;;14.80;99.90;;;;;;5093565;28;20086;-76
2023/07/25 06:11:46;;;;;;;0.40;0.40;;;14.90;99.90;;;;;;5093326;28;20055;-74
2023/07/25 06:14:12;;;;;;;0.40;0.40;;;14.90;99.90;;;;;;5093622;28;20039;-75
2023/07/25 06:16:38;;;;;;;0.50;0.50;;;14.90;99.90;;;;;;5097749;28;20043;-76
2023/07/25 06:19:03;;;;;;;0.40;0.40;;;15.00;99.90;;;;;;5098238;28;20176;-78
2023/07/25 06:21:29;;;;;;;0.40;0.40;;;15.00;99.90;;;;;;5097861;28;20047;-77
2023/07/25 06:23:54;;;;;;;0.30;0.30;;;15.00;99.90;;;;;;5097906;28;20040;-77
2023/07/25 06:26:20;;;;;;;0.40;0.40;;;15.10;99.90;;;;;;5098004;28;20044;-76
2023/07/25 06:28:46;;;;;;;0.40;0.40;;;15.30;99.90;;;;;;5097839;28;20040;-75
2023/07/25 06:31:11;;;;;;;0.47;0.40;;;15.50;99.90;;;;;;5097607;28;20050;-76
2023/07/25 06:33:37;;;;;;;0.30;0.30;;;15.60;99.90;;;;;;5097373;28;20493;-77
2023/07/25 06:36:03;;;;;;;0.65;0.65;;;15.70;99.90;;;;;;5097619;28;20051;-75
2023/07/25 06:38:28;;;;;;;0.47;0.47;;;15.80;99.90;;;;;;5097525;28;20040;-76
2023/07/25 06:40:54;;;;;;;0.40;0.40;;;15.80;99.90;;;;;;5097489;28;20044;-76
2023/07/25 06:43:19;;;;;;;2.42;0.45;;;15.70;99.90;;;;;;5097366;28;20043;-75
2023/07/25 06:45:45;;;;;;;0.30;0.30;;;15.70;99.90;;;;;;5097454;28;20085;-78
2023/07/25 06:48:11;;;;;;;0.87;0.67;;;15.80;99.90;;;;;;5097410;28;20081;-80
2023/07/25 06:50:36;;;;;;;0.43;0.43;;;16.00;99.90;;;;;;5097222;28;20119;-80
2023/07/25 06:53:03;;;;;;;0.47;0.47;;;16.00;99.90;;;;;;5097241;28;20040;-79
2023/07/25 06:55:28;;;;;;;0.40;0.40;;;16.10;99.90;;;;;;5095629;28;20040;-79
2023/07/25 06:57:54;;;;;;;0.30;0.30;;;16.20;99.90;;;;;;5093318;28;20093;-79
2023/07/25 07:00:20;;;;;;;0.30;0.30;;;16.30;99.90;;;;;;5076953;28;20051;-79
2023/07/25 07:02:47;;;;;;;0.43;0.30;;;16.30;99.90;;;;;;5089884;28;20481;-79
2023/07/25 07:05:12;;;;;;;0.50;0.50;;;16.40;99.90;;;;;;5078661;28;20119;-78
2023/07/25 07:07:40;;;;;;;3.50;1.20;;;16.50;99.90;;;;;;5095644;28;20079;-81
2023/07/25 07:10:06;;;;;;;0.30;0.30;;;16.60;99.90;;;;;;5095572;28;20040;-77
2023/07/25 07:12:32;;;;;;;2.03;0.50;;;16.80;99.90;;;;;;5096481;28;20086;-78
2023/07/25 07:14:57;;;;;;;0.40;0.40;;;16.80;99.90;;;;;;5096402;28;20072;-78
2023/07/25 07:17:23;;;;;;;0.30;0.30;;;16.90;99.90;;;;;;5095088;28;20036;-80
2023/07/25 07:19:48;;;;;;;0.30;0.30;;;17.00;99.90;;;;;;5096004;28;20062;-78
2023/07/25 07:22:14;;;;;;;0.47;0.47;;;17.10;99.90;;;;;;5096742;28;20039;-80
2023/07/25 07:24:40;;;;;;;0.30;0.30;;;17.20;99.90;;;;;;5096659;28;20517;-79
2023/07/25 07:27:06;;;;;;;0.30;0.30;;;17.20;99.90;;;;;;5096184;28;20039;-79
2023/07/25 07:29:32;;;;;;;0.30;0.30;;;17.30;99.90;;;;;;5096495;28;20048;-79
2023/07/25 07:31:59;;;;;;;0.30;0.30;;;17.30;99.90;;;;;;5096363;28;20028;-78
2023/07/25 07:34:25;;;;;;;0.40;0.40;;;17.40;99.90;;;;;;5094527;28;20449;-79
2023/07/25 07:36:51;;;;;;;0.30;0.30;;;17.40;99.90;;;;;;5096306;28;20123;-78
2023/07/25 07:39:16;;;;;;;0.47;0.47;;;17.40;99.90;;;;;;5096379;28;20087;-78
2023/07/25 07:41:42;;;;;;;0.30;0.30;;;17.40;99.90;;;;;;5096289;28;20043;-78
2023/07/25 07:44:08;;;;;;;0.40;0.40;;;17.50;99.90;;;;;;5096145;28;20071;-78
2023/07/25 07:46:34;;;;;;;0.30;0.30;;;17.50;99.90;;;;;;5096284;28;20040;-78
2023/07/25 07:49:00;;;;;;;0.30;0.30;;;17.60;99.90;;;;;;5096113;28;20131;-78
2023/07/25 07:51:26;;;;;;;0.55;0.30;;;17.70;99.90;;;;;;5095606;28;20460;-77
2023/07/25 07:53:52;;;;;;;0.30;0.30;;;17.70;99.90;;;;;;5096460;28;20077;-81
2023/07/25 07:56:18;;;;;;;0.30;0.30;;;17.70;99.90;;;;;;5096153;28;20388;-77
2023/07/25 07:58:44;;;;;;;0.30;0.30;;;17.70;99.90;;;;;;5078482;28;20511;-78
2023/07/25 08:01:21;;;;;;;0.30;0.30;;;17.60;99.90;;;;;;5096063;28;20048;-76
2023/07/25 08:03:47;;;;;;;0.30;0.30;;;17.70;99.90;;;;;;5094999;28;20127;-77
2023/07/25 08:06:13;;;;;;;0.50;0.50;;;17.80;99.90;;;;;;5098928;28;20557;-77
2023/07/25 08:08:40;;;;;;;0.30;0.30;;;17.90;99.90;;;;;;5097121;28;20478;-78
2023/07/25 08:11:06;;;;;;;0.30;0.30;;;18.00;99.90;;;;;;5095386;28;20757;-77
2023/07/25 08:13:32;;;;;;;0.30;0.30;;;18.00;99.90;;;;;;5095667;28;20043;-78
2023/07/25 08:15:57;;;;;;;0.20;0.20;;;17.90;99.90;;;;;;5095510;28;20046;-77
2023/07/25 08:18:23;;;;;;;0.30;0.30;;;18.00;99.90;;;;;;5095523;28;20448;-78
2023/07/25 08:20:56;;;;;;;0.30;0.30;;;18.10;99.90;;;;;;5095435;28;20040;-77
2023/07/25 08:23:21;;;;;;;0.30;0.30;;;18.10;99.90;;;;;;5095456;28;20089;-76
2023/07/25 08:25:47;;;;;;;0.30;0.30;;;18.20;99.90;;;;;;5095491;28;20048;-78
2023/07/25 08:28:13;;;;;;;0.30;0.30;;;18.30;99.90;;;;;;5095040;28;20047;-79
2023/07/25 08:30:38;;;;;;;0.30;0.30;;;18.30;99.90;;;;;;5095083;28;20504;-81
2023/07/25 08:33:04;;;;;;;0.30;0.30;;;18.30;99.90;;;;;;5095430;28;20472;-83
2023/07/25 08:35:30;;;;;;;0.30;0.30;;;18.40;99.90;;;;;;5095377;28;20043;-83
2023/07/25 08:37:55;;;;;;;0.30;0.30;;;18.50;99.90;;;;;;5093517;28;20047;-73
2023/07/25 08:40:21;;;;;;;0.30;0.30;;;18.60;99.90;;;;;;5095235;28;20039;-76
2023/07/25 08:42:50;;;;;;;0.20;0.20;;;18.70;99.90;;;;;;5094945;28;20051;-77
2023/07/25 08:45:16;;;;;;;3.20;0.43;;;18.80;99.90;;;;;;5094556;28;20032;-77
2023/07/25 08:47:45;;;;;;;0.35;0.35;;;18.80;99.90;;;;;;5092969;28;20048;-77
2023/07/25 08:50:16;;;;;;;0.30;0.30;;;18.80;99.90;;;;;;5095046;28;20044;-76
2023/07/25 08:52:49;;;;;;;0.30;0.30;;;18.70;99.90;;;;;;5094898;28;20051;-77
2023/07/25 08:55:16;;;;;;;0.30;0.30;;;18.70;99.90;;;;;;5094647;28;20032;-76
2023/07/25 08:57:42;;;;;;;0.30;0.30;;;18.70;99.90;;;;;;5094636;28;20079;-76
2023/07/25 09:00:08;;;;;;;0.50;0.50;;;18.60;99.90;;;;;;5094752;28;20036;-76
2023/07/25 09:02:34;;;;;;;0.30;0.30;;;18.60;99.90;;;;;;5094436;28;20042;-77
2023/07/25 09:05:01;;;;;;;1.17;0.60;;;18.60;99.90;;;;;;5094644;28;20398;-77
2023/07/25 09:07:26;;;;;;;0.22;0.22;;;18.80;99.90;;;;;;5094692;28;20407;-77
2023/07/25 09:09:53;;;;;;;0.30;0.30;;;18.90;99.90;;;;;;5095137;28;20153;-77
2023/07/25 09:12:19;;;;;;;0.30;0.30;;;18.90;99.90;;;;;;5094745;28;20094;-76
2023/07/25 09:14:44;;;;;;;0.30;0.30;;;19.00;99.90;;;;;;5094455;28;20507;-77
2023/07/25 09:17:10;;;;;;;0.30;0.30;;;19.00;99.90;;;;;;5094702;28;20113;-76
2023/07/25 09:19:36;;;;;;;0.30;0.30;;;19.10;99.90;;;;;;5094978;28;20036;-77
2023/07/25 09:22:02;;;;;;;0.27;0.27;;;19.30;99.90;;;;;;5094825;28;20040;-76
2023/07/25 09:24:38;;;;;;;0.20;0.20;;;19.40;99.90;;;;;;5094421;28;20028;-76
2023/07/25 09:27:14;;;;;;;0.20;0.20;;;19.40;99.90;;;;;;5094349;28;20480;-76
2023/07/25 09:29:40;;;;;;;0.30;0.30;;;19.50;99.90;;;;;;5094341;28;20123;-76
2023/07/25 09:32:16;;;;;;;0.30;0.30;;;19.60;99.90;;;;;;5094182;28;20115;-76
2023/07/25 09:34:44;;;;;;;0.20;0.20;;;19.80;99.90;;;;;;5094233;28;20090;-76
2023/07/25 09:37:09;;;;;;;0.20;0.20;;;19.90;99.90;;;;;;5094166;28;20444;-76
2023/07/25 09:39:35;;;;;;;0.20;0.20;;;20.00;99.90;;;;;;5094099;28;20075;-76
2023/07/25 09:42:01;;;;;;;0.20;0.20;;;20.00;99.90;;;;;;5094031;28;20036;-76
2023/07/25 09:44:32;;;;;;;0.20;0.20;;;19.90;99.90;;;;;;5094021;28;20036;-76
2023/07/25 09:46:58;;;;;;;0.20;0.20;;;19.70;99.90;;;;;;5094049;28;20036;-76
2023/07/25 09:49:25;;;;;;;0.20;0.20;;;19.60;99.90;;;;;;5093761;28;20058;-76
2023/07/25 09:52:03;;;;;;;0.30;0.30;;;19.80;99.90;;;;;;5094156;28;20497;-76
2023/07/25 09:54:29;;;;;;;0.35;0.35;;;19.90;99.90;;;;;;5093849;28;20040;-76
2023/07/25 09:56:55;;;;;;;0.30;0.30;;;20.00;99.90;;;;;;5093828;28;20036;-76
2023/07/25 09:59:22;;;;;;;0.30;0.30;;;20.00;99.90;;;;;;5093873;28;20068;-76
2023/07/25 10:01:49;;;;;;;0.30;0.30;;;20.00;99.90;;;;;;5093558;28;20493;-76
2023/07/25 10:04:15;;;;;;;0.32;0.32;;;20.00;99.90;;;;;;5093781;28;20063;-76
2023/07/25 10:06:42;;;;;;;0.20;0.20;;;19.90;99.90;;;;;;5093834;28;20040;-76
2023/07/25 10:09:09;;;;;;;0.30;0.30;;;19.70;99.90;;;;;;5093676;28;20113;-76
2023/07/25 10:11:36;;;;;;;0.20;0.20;;;19.60;99.90;;;;;;5093667;28;20076;-76
2023/07/25 10:14:02;;;;;;;;;;;19.50;99.90;;;;;;5094071;28;20036;-76
2023/07/25 10:16:28;;;;;;;0.30;0.30;;;19.50;99.90;;;;;;5093633;28;19923;-76
2023/07/25 10:18:57;;;;;;;0.30;0.30;;;19.70;99.90;;;;;;5092742;28;20036;-76
2023/07/25 10:21:37;;;;;;;0.30;0.30;;;19.80;99.90;;;;;;5093498;28;20286;-76
2023/07/25 10:24:03;;;;;;;0.20;0.20;;;19.60;99.90;;;;;;5094111;28;20039;-76
2023/07/25 10:26:29;;;;;;;0.50;0.50;;;19.60;99.90;;;;;;5093900;28;20040;-76
2023/07/25 10:28:58;;;;;;;0.30;0.30;;;19.40;99.90;;;;;;5093828;28;20475;-76
2023/07/25 10:31:33;;;;;;;0.30;0.30;;;19.40;99.90;;;;;;5093447;28;20036;-76
2023/07/25 10:33:59;;;;;;;0.20;0.20;;;19.50;99.90;;;;;;5093044;28;20486;-75
2023/07/25 10:36:25;;;;;;;;;;;19.70;99.90;;;;;;5093850;28;20036;-76
2023/07/25 10:38:58;;;;;;;0.30;0.30;;;19.90;99.90;;;;;;5093471;28;19923;-76
2023/07/25 10:41:23;;;;;;;0.30;0.30;;;20.20;99.90;;;;;;5093474;28;20036;-76
2023/07/25 10:43:51;;;;;;;0.30;0.30;;;20.40;99.90;;;;;;5093405;28;20044;-76
2023/07/25 10:46:30;;;;;;;0.20;0.20;;;20.40;99.90;;;;;;5092915;28;20040;-76
2023/07/25 10:49:00;;;;;;;0.30;0.30;;;20.40;99.90;;;;;;5093292;28;20047;-76
2023/07/25 10:51:49;;;;;;;0.30;0.30;;;20.40;99.90;;;;;;5092819;28;20032;-76
2023/07/25 10:54:17;;;;;;;0.20;0.20;;;20.20;99.90;;;;;;5093513;28;20039;-76
2023/07/25 10:57:17;;;;;;;0.20;0.20;;;20.10;99.90;;;;;;5093355;28;20063;-76
2023/07/25 11:00:05;;;;;;;0.30;0.30;;;20.00;99.90;;;;;;5093682;28;20044;-76
2023/07/25 11:02:42;;;;;;;0.20;0.20;;;19.90;99.90;;;;;;5096761;28;20036;-76
2023/07/25 11:05:14;;;;;;;0.20;0.20;;;19.70;99.90;;;;;;5096861;28;20055;-75
2023/07/25 11:07:46;;;;;;;0.20;0.20;;;19.80;99.90;;;;;;5096857;28;20043;-76
2023/07/25 11:10:25;;;;;;;0.20;0.20;;;19.90;99.90;;;;;;5096908;28;20614;-76
2023/07/25 11:12:56;;;;;;;0.20;0.20;;;20.20;99.90;;;;;;5096794;28;20472;-76
2023/07/25 11:15:22;;;;;;;0.20;0.20;;;20.30;99.90;;;;;;5096839;28;20043;-76
2023/07/25 11:17:48;;;;;;;0.65;0.65;;;20.40;99.90;;;;;;5096623;28;20040;-76
2023/07/25 11:20:16;;;;;;;0.30;0.30;;;20.30;99.90;;;;;;5096820;28;20052;-76
2023/07/25 11:22:42;;;;;;;0.30;0.30;;;20.10;99.90;;;;;;5096709;28;20039;-76
2023/07/25 11:25:08;;;;;;;0.20;0.20;;;19.90;99.90;;;;;;5096581;28;20525;-76
2023/07/25 11:27:41;;;;;;;0.43;0.43;;;19.70;99.90;;;;;;5096628;28;20032;-76
2023/07/25 11:30:16;;;;;;;0.25;0.25;;;19.60;99.90;;;;;;5096564;28;20040;-76
2023/07/25 11:32:52;;;;;;;0.20;0.20;;;19.50;99.90;;;;;;5096310;28;20101;-75
2023/07/25 11:35:19;;;;;;;0.20;0.20;;;19.70;99.90;;;;;;5096510;28;20127;-75
2023/07/25 11:37:46;;;;;;;0.20;0.20;;;19.90;99.90;;;;;;5096409;28;20369;-76
2023/07/25 11:40:13;;;;;;;0.20;0.20;;;20.10;99.90;;;;;;5096329;28;20498;-75
2023/07/25 11:42:40;;;;;;;0.20;0.20;;;20.50;99.90;;;;;;5096410;28;20039;-75
2023/07/25 11:45:07;;;;;;;0.20;0.20;;;20.70;99.90;;;;;;5096432;28;20055;-76
2023/07/25 11:47:33;;;;;;;;;;;20.80;99.90;;;;;;5097148;28;20036;-75
2023/07/25 11:49:59;;;;;;;0.20;0.20;;;20.80;99.90;;;;;;5096223;28;19927;-75
2023/07/25 11:52:24;;;;;;;0.20;0.20;;;20.80;99.90;;;;;;5096356;28;20138;-75
2023/07/25 11:54:50;;;;;;;0.30;0.30;;;21.10;99.90;;;;;;5096166;28;20036;-75
2023/07/25 11:57:16;;;;;;;0.30;0.30;;;21.10;99.90;;;;;;5095721;28;20126;-76
2023/07/25 11:59:42;;;;;;;0.30;0.30;;;21.30;99.90;;;;;;5095788;28;20040;-76
2023/07/25 12:02:07;;;;;;;0.30;0.30;;;21.50;99.90;;;;;;5095761;28;20043;-75
2023/07/25 12:04:43;;;;;;;0.30;0.30;;;21.50;99.90;;;;;;5096225;28;20493;-75
2023/07/25 12:07:09;;;;;;;0.20;0.20;;;21.50;99.90;;;;;;5095707;28;20047;-76
2023/07/25 12:09:34;;;;;;;0.25;0.25;;;21.50;99.90;;;;;;5095635;28;20047;-76
2023/07/25 12:12:00;;;;;;;0.20;0.20;;;21.60;99.90;;;;;;5095548;28;20036;-76
2023/07/25 12:14:25;;;;;;;0.20;0.20;;;21.70;99.90;;;;;;5095665;28;20091;-76
2023/07/25 12:16:51;;;;;;;0.20;0.20;;;21.60;99.90;;;;;;5095737;28;20040;-76
2023/07/25 12:19:17;;;;;;;0.30;0.30;;;21.50;99.90;;;;;;5095951;28;20047;-75
2023/07/25 12:21:44;;;;;;;0.30;0.30;;;21.40;99.90;;;;;;5095401;28;20108;-75
2023/07/25 12:24:15;;;;;;;0.20;0.20;;;21.30;99.90;;;;;;5095425;28;20127;-76
2023/07/25 12:26:50;;;;;;;0.25;0.25;;;21.30;99.90;;;;;;5095251;28;20047;-76
2023/07/25 12:29:18;;;;;;;0.30;0.30;;;21.30;99.90;;;;;;5095221;28;20086;-75
2023/07/25 12:31:44;;;;;;;0.20;0.20;;;21.40;99.90;;;;;;5095103;28;20032;-76
2023/07/25 12:34:11;;;;;;;0.20;0.20;;;21.50;99.90;;;;;;5095350;28;20122;-76
2023/07/25 12:36:37;;;;;;;;;;;21.80;99.90;;;;;;5095518;28;20119;-76
2023/07/25 12:39:03;;;;;;;0.20;0.20;;;22.00;99.90;;;;;;5095171;28;19979;-76
2023/07/25 12:41:28;;;;;;;0.20;0.20;;;22.10;99.90;;;;;;5094987;28;20051;-76
2023/07/25 12:43:54;;;;;;;0.23;0.23;;;21.90;99.90;;;;;;5095139;28;20066;-75
2023/07/25 12:46:20;;;;;;;0.30;0.30;;;21.40;99.90;;;;;;5094831;28;20123;-76